| time (UTC) | temp C | wind direction | speed KPH | gust KPH | rain 1hr cm | rain 24hr cm | rain mn cm | humidity % | barometer mb |
| 20260510164608 | -17 | 46 | 6.4 | 14.5 | 0.00 | 0.00 | 0.00 | 1066.9 | |
| 20260510164104 | -17 | 40 | 4.8 | 9.7 | 0.00 | 0.00 | 0.00 | 1066.9 | |
| 20260510163554 | -17 | 326 | 8.0 | 9.7 | 0.00 | 0.00 | 0.00 | 1066.9 | |
| 20260510163050 | -17 | 54 | 8.0 | 14.5 | 0.00 | 0.00 | 0.00 | 1066.8 | |
| 20260510162545 | -17 | 63 | 4.8 | 11.3 | 0.00 | 0.00 | 0.00 | 1066.6 | |
| 20260510162042 | -17 | 59 | 4.8 | 16.1 | 0.00 | 0.00 | 0.00 | 1066.6 | |
| 20260510161537 | -17 | 122 | 3.2 | 8.0 | 0.00 | 0.00 | 0.00 | 1066.7 | |
| 20260510161034 | -17 | 104 | 4.8 | 11.3 | 0.00 | 0.00 | 0.00 | 1066.6 | |
| 20260510160526 | -17 | 41 | 8.0 | 11.3 | 0.00 | 0.00 | 0.00 | 1066.5 | |
| 20260510160026 | -17 | 85 | 4.8 | 8.0 | 0.00 | 0.00 | 0.00 | 1066.6 | |
| 20260510155522 | -17 | 44 | 4.8 | 9.7 | 0.00 | 0.00 | 0.00 | 1066.2 | |
| 20260510155019 | -17 | 2 | 6.4 | 9.7 | 0.00 | 0.00 | 0.00 | 1066.3 | |
| 20260510154515 | -17 | 89 | 4.8 | 9.7 | 0.00 | 0.00 | 0.00 | 1066.3 | |
| 20260510154014 | -17 | 68 | 4.8 | 11.3 | 0.00 | 0.00 | 0.00 | 1066.5 | |
| 20260510153509 | -17 | 84 | 6.4 | 12.9 | 0.00 | 0.00 | 0.00 | 1066.6 | |
| 20260510153007 | -17 | 47 | 8.0 | 11.3 | 0.00 | 0.00 | 0.00 | 1066.5 | |
| 20260510152504 | -17 | 119 | 1.6 | 3.2 | 0.00 | 0.00 | 0.00 | 1066.8 | |
| 20260510152000 | -17 | 47 | 8.0 | 11.3 | 0.00 | 0.00 | 0.00 | 1066.8 | |
| 20260510151457 | -17 | 71 | 4.8 | 4.8 | 0.00 | 0.00 | 0.00 | 1066.7 | |
| 20260510150954 | -17 | 306 | 8.0 | 12.9 | 0.00 | 0.00 | 0.00 | 1067.0 | |
| 20260510150449 | -17 | 44 | 6.4 | 8.0 | 0.00 | 0.00 | 0.00 | 1066.8 | |
| 20260510145945 | -17 | 68 | 9.7 | 12.9 | 0.00 | 0.00 | 0.00 | 1066.8 | |
| 20260510145442 | -17 | 58 | 6.4 | 14.5 | 0.00 | 0.00 | 0.00 | 1067.0 | |
| 20260510144938 | -17 | 45 | 3.2 | 8.0 | 0.00 | 0.00 | 0.00 | 1066.5 | |
| 20260510144435 | -17 | 36 | 3.2 | 8.0 | 0.00 | 0.00 | 0.00 | 1066.7 | |
| 20260510143931 | -17 | 307 | 6.4 | 9.7 | 0.00 | 0.00 | 0.00 | 1066.6 | |
| 20260510143426 | -17 | 32 | 4.8 | 8.0 | 0.00 | 0.00 | 0.00 | 1066.7 | |
| 20260510142924 | -17 | 49 | 4.8 | 11.3 | 0.00 | 0.00 | 0.00 | 1066.6 | |
| 20260510142421 | -17 | 72 | 4.8 | 8.0 | 0.00 | 0.00 | 0.00 | 1066.4 | |
| 20260510141917 | -17 | 59 | 4.8 | 8.0 | 0.00 | 0.00 | 0.00 | 1066.1 | |
| 20260510141414 | -17 | 89 | 4.8 | 4.8 | 0.00 | 0.00 | 0.00 | 1066.2 | |
| 20260510140912 | -17 | 57 | 4.8 | 4.8 | 0.00 | 0.00 | 0.00 | 1066.1 | |
| 20260510140408 | -17 | 53 | 4.8 | 8.0 | 0.00 | 0.00 | 0.00 | 1065.7 | |
| 20260510135907 | -17 | 46 | 4.8 | 8.0 | 0.00 | 0.00 | 0.00 | 1065.7 | |
| 20260510135403 | -17 | 81 | 4.8 | 8.0 | 0.00 | 0.00 | 0.00 | 1065.6 | |
| 20260510134900 | -17 | 78 | 1.6 | 4.8 | 0.00 | 0.00 | 0.00 | 1065.3 | |
| 20260510134357 | -17 | 49 | 6.4 | 9.7 | 0.00 | 0.00 | 0.00 | 1065.5 | |
| 20260510133853 | -17 | 83 | 3.2 | 9.7 | 0.00 | 0.00 | 0.00 | 1065.6 | |
| 20260510133349 | -17 | 63 | 6.4 | 11.3 | 0.00 | 0.00 | 0.00 | 1065.6 | |
| 20260510132845 | -17 | 42 | 8.0 | 9.7 | 0.00 | 0.00 | 0.00 | 1065.4 | |
| 20260510132343 | -17 | 57 | 3.2 | 8.0 | 0.00 | 0.00 | 0.00 | 1065.5 | |
| 20260510131840 | -17 | 56 | 4.8 | 4.8 | 0.00 | 0.00 | 0.00 | 1065.3 | |
| 20260510131337 | -17 | 131 | 3.2 | 8.0 | 0.00 | 0.00 | 0.00 | 1065.1 | |
| 20260510130834 | -17 | 34 | 4.8 | 8.0 | 0.00 | 0.00 | 0.00 | 1064.9 | |
| 20260510130331 | -17 | 37 | 8.0 | 9.7 | 0.00 | 0.00 | 0.00 | 1064.9 | |
| 20260510125827 | -17 | 73 | 3.2 | 4.8 | 0.00 | 0.00 | 0.00 | 1064.8 | |
| 20260510125323 | -17 | 60 | 4.8 | 9.7 | 0.00 | 0.00 | 0.00 | 1064.6 | |
| 20260510124820 | -17 | 50 | 6.4 | 9.7 | 0.00 | 0.00 | 0.00 | 1064.7 | |
| 20260510124318 | -17 | 61 | 4.8 | 11.3 | 0.00 | 0.00 | 0.00 | 1064.7 | |
| 20260510123813 | -17 | 56 | 4.8 | 8.0 | 0.00 | 0.00 | 0.00 | 1064.7 | |
| 20260510123309 | -17 | 317 | 6.4 | 9.7 | 0.00 | 0.00 | 0.00 | 1064.7 | |
| 20260510122805 | -17 | 70 | 3.2 | 9.7 | 0.00 | 0.00 | 0.00 | 1064.6 | |
| 20260510122301 | -17 | 92 | 3.2 | 8.0 | 0.00 | 0.00 | 0.00 | 1064.4 | |
| 20260510121758 | -17 | 80 | 3.2 | 4.8 | 0.00 | 0.00 | 0.00 | 1064.6 | |
| 20260510121256 | -17 | 60 | 3.2 | 4.8 | 0.00 | 0.00 | 0.00 | 1064.7 | |
| 20260510120753 | -17 | 91 | 1.6 | 4.8 | 0.00 | 0.00 | 0.00 | 1064.5 | |
| 20260510120249 | -17 | 55 | 4.8 | 4.8 | 0.00 | 0.00 | 0.00 | 1064.0 | |
| 20260510115745 | -17 | 70 | 3.2 | 8.0 | 0.00 | 0.00 | 0.00 | 1064.2 | |
| 20260510115243 | -17 | 50 | 3.2 | 9.7 | 0.00 | 0.00 | 0.00 | 1063.8 | |
| 20260510114738 | -17 | 57 | 3.2 | 4.8 | 0.00 | 0.00 | 0.00 | 1063.9 | |
| 20260510114236 | -17 | 29 | 4.8 | 8.0 | 0.00 | 0.00 | 0.00 | 1063.7 | |
| 20260510113731 | -17 | 74 | 3.2 | 4.8 | 0.00 | 0.00 | 0.00 | 1063.7 | |
| 20260510113228 | -17 | 52 | 3.2 | 4.8 | 0.00 | 0.00 | 0.00 | 1063.6 | |
| 20260510112724 | -17 | 106 | 1.6 | 4.8 | 0.00 | 0.00 | 0.00 | 1063.4 | |
| 20260510112221 | -17 | 49 | 3.2 | 4.8 | 0.00 | 0.00 | 0.00 | 1063.0 | |
| 20260510111717 | -17 | 63 | 4.8 | 9.7 | 0.00 | 0.00 | 0.00 | 1063.1 | |
| 20260510111215 | -17 | 62 | 3.2 | 8.0 | 0.00 | 0.00 | 0.00 | 1063.5 | |
| 20260510110714 | -17 | 35 | 4.8 | 4.8 | 0.00 | 0.00 | 0.00 | 1063.5 | |
| 20260510110212 | -17 | 54 | 3.2 | 4.8 | 0.00 | 0.00 | 0.00 | 1063.6 | |
| 20260510105712 | -17 | 42 | 3.2 | 8.0 | 0.00 | 0.00 | 0.00 | 1063.4 | |
| 20260510105206 | -17 | 47 | 4.8 | 9.7 | 0.00 | 0.00 | 0.00 | 1063.4 | |
| 20260510104703 | -17 | 336 | 4.8 | 8.0 | 0.00 | 0.00 | 0.00 | 1063.4 | |
| 20260510104200 | -17 | 33 | 4.8 | 8.0 | 0.00 | 0.00 | 0.00 | 1063.0 | |
| 20260510103657 | -17 | 65 | 3.2 | 4.8 | 0.00 | 0.00 | 0.00 | 1062.7 | |
| 20260510103154 | -17 | 92 | 3.2 | 4.8 | 0.00 | 0.00 | 0.00 | 1062.9 | |
| 20260510102654 | -17 | 52 | 4.8 | 4.8 | 0.00 | 0.00 | 0.00 | 1062.7 | |
| 20260510102150 | -17 | 77 | 1.6 | 3.2 | 0.00 | 0.00 | 0.00 | 1062.5 | |
| 20260510101648 | -17 | 84 | 1.6 | 3.2 | 0.00 | 0.00 | 0.00 | 1062.6 | |
| 20260510101146 | -17 | 95 | 0.0 | 1.6 | 0.00 | 0.00 | 0.00 | 1062.6 | |
| 20260510100641 | -17 | 114 | 1.6 | 1.6 | 0.00 | 0.00 | 0.00 | 1062.6 | |
| 20260510100139 | -17 | 113 | 1.6 | 3.2 | 0.00 | 0.00 | 0.00 | 1062.3 | |
| 20260510095635 | -17 | 90 | 3.2 | 3.2 | 0.00 | 0.00 | 0.00 | 1062.2 | |
| 20260510095131 | -17 | 112 | 1.6 | 3.2 | 0.00 | 0.00 | 0.00 | 1062.1 | |
| 20260510094629 | -17 | 71 | 1.6 | 3.2 | 0.00 | 0.00 | 0.00 | 1062.2 | |
| 20260510094126 | -17 | 87 | 1.6 | 8.0 | 0.00 | 0.00 | 0.00 | 1061.9 | |
| 20260510093622 | -17 | 63 | 3.2 | 3.2 | 0.00 | 0.00 | 0.00 | 1062.1 | |
| 20260510093119 | -17 | 82 | 3.2 | 3.2 | 0.00 | 0.00 | 0.00 | 1062.0 | |
| 20260510092615 | -17 | 95 | 0.0 | 3.2 | 0.00 | 0.00 | 0.00 | 1062.0 | |
| 20260510092115 | -17 | 107 | 1.6 | 3.2 | 0.00 | 0.00 | 0.00 | 1062.0 | |
| 20260510091612 | -17 | 74 | 1.6 | 3.2 | 0.00 | 0.00 | 0.00 | 1062.1 | |
| 20260510091108 | -17 | 89 | 1.6 | 3.2 | 0.00 | 0.00 | 0.00 | 1061.9 | |
| 20260510090605 | -17 | 116 | 0.0 | 3.2 | 0.00 | 0.00 | 0.00 | 1061.9 | |
| 20260510090101 | -17 | 67 | 3.2 | 4.8 | 0.00 | 0.00 | 0.00 | 1062.0 | |
| 20260510085556 | -17 | 90 | 3.2 | 4.8 | 0.00 | 0.00 | 0.00 | 1061.9 | |
| 20260510085052 | -17 | 96 | 1.6 | 3.2 | 0.00 | 0.00 | 0.00 | 1061.6 | |
| 20260510084549 | -17 | 80 | 1.6 | 3.2 | 0.00 | 0.00 | 0.00 | 1061.6 | |
| 20260510084046 | -17 | 99 | 1.6 | 1.6 | 0.00 | 0.00 | 0.00 | 1061.5 | |
| 20260510083542 | -17 | 110 | 3.2 | 3.2 | 0.00 | 0.00 | 0.00 | 1061.4 | |
| 20260510083038 | -17 | 124 | 0.0 | 3.2 | 0.00 | 0.00 | 0.00 | 1061.4 | |
| 20260510082535 | -17 | 119 | 0.0 | 0.0 | 0.00 | 0.00 | 0.00 | 1061.5 | |
| 20260510082031 | -17 | 97 | 1.6 | 3.2 | 0.00 | 0.00 | 0.00 | 1061.4 | |
| 20260510081526 | -17 | 99 | 1.6 | 1.6 | 0.00 | 0.00 | 0.00 | 1061.2 | |
| 20260510081022 | -17 | 119 | 0.0 | 1.6 | 0.00 | 0.00 | 0.00 | 1061.3 | |
| 20260510080521 | -17 | 115 | 0.0 | 1.6 | 0.00 | 0.00 | 0.00 | 1061.3 | |
| 20260510080018 | -17 | 96 | 1.6 | 1.6 | 0.00 | 0.00 | 0.00 | 1061.2 | |
| 20260510075515 | -17 | 85 | 1.6 | 3.2 | 0.00 | 0.00 | 0.00 | 1061.1 | |
| 20260510075012 | -17 | 71 | 1.6 | 3.2 | 0.00 | 0.00 | 0.00 | 1061.0 | |
| 20260510074510 | -17 | 66 | 1.6 | 3.2 | 0.00 | 0.00 | 0.00 | 1061.0 | |
| 20260510074005 | -17 | 107 | 0.0 | 1.6 | 0.00 | 0.00 | 0.00 | 1061.2 | |
| 20260510073501 | -17 | 116 | 0.0 | 0.0 | 0.00 | 0.00 | 0.00 | 1061.1 | |
| 20260510072958 | -17 | 74 | 1.6 | 1.6 | 0.00 | 0.00 | 0.00 | 1060.9 | |
| 20260510072455 | -17 | 68 | 3.2 | 3.2 | 0.00 | 0.00 | 0.00 | 1061.1 | |
| 20260510071950 | -17 | 46 | 3.2 | 9.7 | 0.00 | 0.00 | 0.00 | 1061.4 | |
| 20260510071447 | -17 | 100 | 0.0 | 1.6 | 0.00 | 0.00 | 0.00 | 1061.2 | |
| 20260510070945 | -17 | 111 | 0.0 | 1.6 | 0.00 | 0.00 | 0.00 | 1061.1 | |
| 20260510070442 | -17 | 124 | 0.0 | 1.6 | 0.00 | 0.00 | 0.00 | 1061.3 | |
| 20260510065938 | -17 | 123 | 0.0 | 1.6 | 0.00 | 0.00 | 0.00 | 1060.9 | |
| 20260510065435 | -17 | 124 | 0.0 | 0.0 | 0.00 | 0.00 | 0.00 | 1060.9 | |
| 20260510064931 | -17 | 129 | 0.0 | 0.0 | 0.00 | 0.00 | 0.00 | 1060.8 | |
| 20260510064428 | -17 | 117 | 0.0 | 0.0 | 0.00 | 0.00 | 0.00 | 1060.8 | |
| 20260510063925 | -17 | 118 | 0.0 | 1.6 | 0.00 | 0.00 | 0.00 | 1060.9 | |
| 20260510063421 | -17 | 127 | 0.0 | 0.0 | 0.00 | 0.00 | 0.00 | 1060.9 | |
| 20260510062919 | -17 | 128 | 0.0 | 0.0 | 0.00 | 0.00 | 0.00 | 1060.6 | |
| 20260510062414 | -17 | 127 | 0.0 | 0.0 | 0.00 | 0.00 | 0.00 | 1060.9 | |
| 20260510061910 | -17 | 128 | 0.0 | 0.0 | 0.00 | 0.00 | 0.00 | 1060.6 | |
| 20260510061407 | -17 | 129 | 0.0 | 1.6 | 0.00 | 0.00 | 0.00 | 1061.0 | |
| 20260510060902 | -17 | 136 | 0.0 | 1.6 | 0.00 | 0.00 | 0.00 | 1060.8 | |
| 20260510060359 | -17 | 139 | 1.6 | 3.2 | 0.00 | 0.00 | 0.00 | 1060.7 | |
| 20260510055850 | -17 | 150 | 3.2 | 3.2 | 0.00 | 0.00 | 0.00 | 1060.9 | |
| 20260510055349 | -17 | 137 | 1.6 | 1.6 | 0.00 | 0.00 | 0.00 | 1061.0 | |
| 20260510054843 | -17 | 155 | 3.2 | 4.8 | 0.00 | 0.00 | 0.00 | 1060.9 | |
| 20260510054339 | -17 | 164 | 3.2 | 4.8 | 0.00 | 0.00 | 0.00 | 1061.0 | |
| 20260510053833 | -17 | 149 | 3.2 | 3.2 | 0.00 | 0.00 | 0.00 | 1061.0 | |
| 20260510053329 | -17 | 147 | 1.6 | 1.6 | 0.00 | 0.00 | 0.00 | 1060.6 | |
| 20260510052826 | -17 | 133 | 0.0 | 0.0 | 0.00 | 0.00 | 0.00 | 1061.1 | |
| 20260510052322 | -17 | 121 | 0.0 | 0.0 | 0.00 | 0.00 | 0.00 | 1060.7 | |
| 20260510051818 | -17 | 121 | 0.0 | 0.0 | 0.00 | 0.00 | 0.00 | 1060.8 | |
| 20260510051315 | -17 | 127 | 0.0 | 1.6 | 0.00 | 0.00 | 0.00 | 1060.9 | |
| 20260510050811 | -17 | 133 | 0.0 | 0.0 | 0.00 | 0.00 | 0.00 | 1060.7 | |
| 20260510050303 | -17 | 121 | 0.0 | 1.6 | 0.00 | 0.00 | 0.00 | 1060.8 | |
| 20260510045800 | -17 | 135 | 0.0 | 0.0 | 0.00 | 0.03 | 0.03 | 1060.4 | |
| 20260510045256 | -17 | 129 | 0.0 | 0.0 | 0.00 | 0.03 | 0.03 | 1060.3 | |
| 20260510044754 | -17 | 127 | 0.0 | 0.0 | 0.00 | 0.03 | 0.03 | 1060.2 | |
| 20260510044250 | -17 | 124 | 0.0 | 0.0 | 0.00 | 0.03 | 0.03 | 1060.2 | |
| 20260510043746 | -17 | 119 | 0.0 | 0.0 | 0.00 | 0.03 | 0.03 | 1060.3 | |
| 20260510043242 | -17 | 99 | 1.6 | 3.2 | 0.00 | 0.03 | 0.03 | 1060.3 | |
| 20260510042740 | -17 | 96 | 1.6 | 3.2 | 0.00 | 0.03 | 0.03 | 1060.3 | |
| 20260510042235 | -17 | 109 | 1.6 | 3.2 | 0.00 | 0.03 | 0.03 | 1060.1 | |
| 20260510041732 | -17 | 326 | 4.8 | 9.7 | 0.00 | 0.03 | 0.03 | 1060.0 | |
| 20260510041230 | -17 | 68 | 4.8 | 11.3 | 0.00 | 0.03 | 0.03 | 1060.0 | |
| 20260510040726 | -17 | 358 | 8.0 | 14.5 | 0.00 | 0.03 | 0.03 | 1059.7 | |
| 20260510040223 | -17 | 131 | 0.0 | 0.0 | 0.00 | 0.03 | 0.03 | 1059.5 | |
| 20260510035719 | -17 | 128 | 0.0 | 0.0 | 0.00 | 0.03 | 0.03 | 1059.2 | |
| 20260510035215 | -17 | 134 | 0.0 | 1.6 | 0.00 | 0.03 | 0.03 | 1059.2 | |
| 20260510034711 | -17 | 131 | 0.0 | 1.6 | 0.00 | 0.03 | 0.03 | 1059.4 | |
| 20260510034209 | -17 | 132 | 0.0 | 1.6 | 0.00 | 0.03 | 0.03 | 1059.3 | |
| 20260510033659 | -17 | 134 | 0.0 | 1.6 | 0.00 | 0.03 | 0.03 | 1059.1 | |
| 20260510033157 | -17 | 138 | 1.6 | 1.6 | 0.00 | 0.03 | 0.03 | 1059.1 | |
| 20260510032653 | -17 | 130 | 0.0 | 0.0 | 0.00 | 0.03 | 0.03 | 1059.2 | |
| 20260510032148 | -17 | 134 | 0.0 | 0.0 | 0.00 | 0.03 | 0.03 | 1059.0 | |
| 20260510031643 | -17 | 133 | 0.0 | 1.6 | 0.00 | 0.03 | 0.03 | 1059.1 | |
| 20260510031140 | -17 | 139 | 0.0 | 1.6 | 0.00 | 0.03 | 0.03 | 1059.0 | |
| 20260510030634 | -17 | 132 | 0.0 | 0.0 | 0.00 | 0.03 | 0.03 | 1059.1 | |
| 20260510030132 | -17 | 137 | 0.0 | 1.6 | 0.00 | 0.03 | 0.03 | 1059.1 | |
| 20260510025629 | -17 | 132 | 0.0 | 0.0 | 0.00 | 0.03 | 0.03 | 1059.0 | |
| 20260510025126 | -17 | 132 | 0.0 | 0.0 | 0.00 | 0.03 | 0.03 | 1058.9 | |
| 20260510024623 | -17 | 137 | 1.6 | 1.6 | 0.00 | 0.03 | 0.03 | 1058.9 | |
| 20260510024119 | -17 | 132 | 0.0 | 0.0 | 0.00 | 0.03 | 0.03 | 1059.0 | |
| 20260510023615 | -17 | 134 | 0.0 | 0.0 | 0.00 | 0.03 | 0.03 | 1058.7 | |
| 20260510023113 | -17 | 134 | 0.0 | 0.0 | 0.00 | 0.03 | 0.03 | 1058.3 | |
| 20260510022613 | -17 | 134 | 0.0 | 1.6 | 0.00 | 0.03 | 0.03 | 1058.5 | |
| 20260510022108 | -17 | 129 | 0.0 | 0.0 | 0.00 | 0.03 | 0.03 | 1058.4 | |
| 20260510021604 | -17 | 142 | 1.6 | 3.2 | 0.00 | 0.03 | 0.03 | 1058.1 | |
| 20260510021102 | -17 | 143 | 1.6 | 3.2 | 0.00 | 0.03 | 0.03 | 1058.2 | |
| 20260510020555 | -17 | 143 | 0.0 | 0.0 | 0.00 | 0.03 | 0.03 | 1058.1 | |
| 20260510020051 | -17 | 129 | 0.0 | 0.0 | 0.00 | 0.03 | 0.03 | 1058.0 | |
| 20260510015548 | -17 | 128 | 0.0 | 0.0 | 0.00 | 0.03 | 0.03 | 1058.0 | |
| 20260510015044 | -17 | 129 | 0.0 | 0.0 | 0.00 | 0.03 | 0.03 | 1057.9 | |
| 20260510014540 | -17 | 133 | 0.0 | 0.0 | 0.00 | 0.03 | 0.03 | 1057.9 | |
| 20260510014037 | -17 | 129 | 0.0 | 0.0 | 0.00 | 0.03 | 0.03 | 1057.7 | |
| 20260510013532 | -17 | 131 | 0.0 | 0.0 | 0.00 | 0.03 | 0.03 | 1057.4 | |
| 20260510013027 | -17 | 132 | 0.0 | 0.0 | 0.00 | 0.03 | 0.03 | 1057.3 | |
| 20260510012522 | -17 | 128 | 0.0 | 0.0 | 0.00 | 0.03 | 0.03 | 1057.2 | |
| 20260510012019 | -17 | 129 | 0.0 | 0.0 | 0.00 | 0.03 | 0.03 | 1057.5 | |
| 20260510011518 | -17 | 130 | 0.0 | 0.0 | 0.00 | 0.03 | 0.03 | 1057.2 | |
| 20260510011014 | -17 | 128 | 0.0 | 0.0 | 0.00 | 0.03 | 0.03 | 1057.3 | |
| 20260510010511 | -17 | 129 | 0.0 | 0.0 | 0.00 | 0.03 | 0.03 | 1057.1 | |
| 20260510010008 | -17 | 128 | 0.0 | 0.0 | 0.00 | 0.03 | 0.03 | 1057.2 | |
| 20260510005504 | -17 | 131 | 0.0 | 0.0 | 0.00 | 0.03 | 0.03 | 1057.3 | |
| 20260510005002 | -17 | 128 | 0.0 | 0.0 | 0.00 | 0.03 | 0.03 | 1057.3 | |
| 20260510004459 | -17 | 129 | 0.0 | 0.0 | 0.00 | 0.03 | 0.03 | 1057.0 | |
| 20260510003957 | -17 | 128 | 0.0 | 0.0 | 0.00 | 0.03 | 0.03 | 1057.0 | |
| 20260510003453 | -17 | 128 | 0.0 | 0.0 | 0.00 | 0.03 | 0.03 | 1057.0 | |
| 20260510002948 | -17 | 129 | 0.0 | 0.0 | 0.00 | 0.03 | 0.03 | 1057.2 | |
| 20260510002444 | -17 | 128 | 0.0 | 0.0 | 0.00 | 0.03 | 0.03 | 1057.0 | |
| 20260510001941 | -17 | 128 | 0.0 | 0.0 | 0.00 | 0.03 | 0.03 | 1056.9 | |
| 20260510001438 | -17 | 131 | 0.0 | 0.0 | 0.00 | 0.03 | 0.03 | 1057.2 | |
| 20260510000936 | -17 | 127 | 0.0 | 0.0 | 0.00 | 0.03 | 0.03 | 1056.9 | |
| 20260510000433 | -17 | 129 | 0.0 | 0.0 | 0.00 | 0.03 | 0.03 | 1057.2 | |
| 20260509235929 | -17 | 128 | 0.0 | 0.0 | 0.00 | 0.03 | 0.03 | 1056.9 | |
| 20260509235426 | -17 | 136 | 0.0 | 0.0 | 0.00 | 0.03 | 0.03 | 1057.1 | |
| 20260509234922 | -17 | 135 | 0.0 | 1.6 | 0.00 | 0.03 | 0.03 | 1057.0 | |
| 20260509234419 | -17 | 129 | 0.0 | 0.0 | 0.00 | 0.03 | 0.03 | 1056.8 | |
| 20260509233917 | -17 | 131 | 0.0 | 3.2 | 0.00 | 0.03 | 0.03 | 1057.0 | |
| 20260509233414 | -17 | 270 | 6.4 | 8.0 | 0.00 | 0.03 | 0.03 | 1056.7 | |
| 20260509232910 | -17 | 122 | 0.0 | 1.6 | 0.00 | 0.03 | 0.03 | 1056.8 | |
| 20260509232408 | -17 | 131 | 1.6 | 1.6 | 0.00 | 0.03 | 0.03 | 1056.9 | |
| 20260509231903 | -17 | 128 | 0.0 | 4.8 | 0.00 | 0.03 | 0.03 | 1056.8 | |
| 20260509231400 | -17 | 155 | 1.6 | 8.0 | 0.00 | 0.03 | 0.03 | 1056.7 | |
| 20260509230859 | -17 | 168 | 3.2 | 3.2 | 0.00 | 0.03 | 0.03 | 1057.1 | |
| 20260509230355 | -17 | 186 | 4.8 | 8.0 | 0.00 | 0.03 | 0.03 | 1056.7 | |
| 20260509225851 | -17 | 140 | 0.0 | 3.2 | 0.00 | 0.03 | 0.03 | 1057.1 | |
| 20260509225348 | -17 | 174 | 3.2 | 8.0 | 0.00 | 0.03 | 0.03 | 1056.8 | |
| 20260509224843 | -17 | 128 | 1.6 | 9.7 | 0.00 | 0.03 | 0.03 | 1056.6 | |
| 20260509224340 | -17 | 123 | 1.6 | 11.3 | 0.00 | 0.03 | 0.03 | 1056.8 | |
| 20260509223837 | -17 | 242 | 4.8 | 9.7 | 0.00 | 0.03 | 0.03 | 1056.9 | |
| 20260509223333 | -17 | 268 | 3.2 | 4.8 | 0.00 | 0.03 | 0.03 | 1056.8 | |
| 20260509222830 | -17 | 135 | 0.0 | 4.8 | 0.00 | 0.03 | 0.03 | 1056.9 | |
| 20260509222326 | -17 | 272 | 4.8 | 4.8 | 0.00 | 0.03 | 0.03 | 1057.0 | |
| 20260509221821 | -17 | 92 | 1.6 | 4.8 | 0.00 | 0.03 | 0.03 | 1056.8 | |
| 20260509221319 | -17 | 299 | 4.8 | 9.7 | 0.00 | 0.03 | 0.03 | 1057.1 | |
| 20260509220814 | -17 | 193 | 1.6 | 4.8 | 0.00 | 0.03 | 0.03 | 1056.7 | |
| 20260509220310 | -17 | 161 | 3.2 | 4.8 | 0.00 | 0.03 | 0.03 | 1056.8 | |
| 20260509215806 | -17 | 335 | 1.6 | 9.7 | 0.00 | 0.03 | 0.03 | 1056.8 | |
| 20260509215305 | -17 | 245 | 3.2 | 4.8 | 0.00 | 0.03 | 0.03 | 1056.9 | |
| 20260509214759 | -17 | 175 | 1.6 | 9.7 | 0.00 | 0.03 | 0.03 | 1056.8 | |
| 20260509214257 | -17 | 215 | 6.4 | 8.0 | 0.00 | 0.03 | 0.03 | 1056.6 | |
| 20260509213754 | -17 | 245 | 3.2 | 8.0 | 0.00 | 0.03 | 0.03 | 1056.8 | |
| 20260509213249 | -17 | 250 | 6.4 | 11.3 | 0.00 | 0.03 | 0.03 | 1056.8 | |
| 20260509212747 | -17 | 140 | 3.2 | 8.0 | 0.00 | 0.03 | 0.03 | 1056.8 | |
| 20260509212244 | -17 | 260 | 8.0 | 11.3 | 0.00 | 0.03 | 0.03 | 1057.1 | |
| 20260509211734 | -17 | 270 | 8.0 | 12.9 | 0.00 | 0.03 | 0.03 | 1056.9 | |
| 20260509211231 | -17 | 286 | 8.0 | 11.3 | 0.00 | 0.03 | 0.03 | 1057.1 | |
| 20260509210727 | -17 | 141 | 0.0 | 8.0 | 0.00 | 0.03 | 0.03 | 1057.0 | |
| 20260509210225 | -17 | 331 | 6.4 | 9.7 | 0.00 | 0.03 | 0.03 | 1056.9 | |
| 20260509205725 | -17 | 95 | 4.8 | 11.3 | 0.00 | 0.03 | 0.03 | 1057.3 | |
| 20260509205224 | -17 | 155 | 1.6 | 4.8 | 0.00 | 0.03 | 0.03 | 1057.3 | |
| 20260509204721 | -17 | 266 | 9.7 | 14.5 | 0.00 | 0.03 | 0.03 | 1057.2 | |
| 20260509204217 | -17 | 177 | 3.2 | 3.2 | 0.00 | 0.03 | 0.03 | 1057.1 | |
| 20260509203713 | -17 | 203 | 4.8 | 4.8 | 0.00 | 0.03 | 0.03 | 1057.1 | |
| 20260509203211 | -17 | 136 | 3.2 | 8.0 | 0.00 | 0.03 | 0.03 | 1057.4 | |
| 20260509202706 | -17 | 205 | 6.4 | 9.7 | 0.00 | 0.03 | 0.03 | 1057.4 | |
| 20260509202202 | -17 | 274 | 4.8 | 12.9 | 0.00 | 0.03 | 0.03 | 1057.5 | |
| 20260509201657 | -17 | 194 | 3.2 | 11.3 | 0.00 | 0.03 | 0.03 | 1057.6 | |
| 20260509201154 | -17 | 295 | 3.2 | 11.3 | 0.00 | 0.03 | 0.03 | 1057.6 | |
| 20260509200651 | -17 | 172 | 6.4 | 9.7 | 0.00 | 0.03 | 0.03 | 1057.4 | |
| 20260509200146 | -17 | 91 | 3.2 | 12.9 | 0.00 | 0.03 | 0.03 | 1057.6 | |
| 20260509195642 | -17 | 298 | 4.8 | 9.7 | 0.00 | 0.03 | 0.03 | 1057.5 | |
| 20260509195137 | -17 | 289 | 4.8 | 9.7 | 0.00 | 0.03 | 0.03 | 1057.7 | |
| 20260509194636 | -17 | 252 | 4.8 | 8.0 | 0.00 | 0.03 | 0.03 | 1057.6 | |
| 20260509194134 | -17 | 70 | 3.2 | 8.0 | 0.00 | 0.03 | 0.03 | 1057.5 | |
| 20260509193630 | -17 | 112 | 4.8 | 14.5 | 0.00 | 0.03 | 0.03 | 1057.6 | |
| 20260509193125 | -17 | 236 | 6.4 | 11.3 | 0.00 | 0.03 | 0.03 | 1057.5 | |
| 20260509192623 | -17 | 295 | 4.8 | 12.9 | 0.00 | 0.03 | 0.03 | 1057.7 | |
| 20260509192117 | -17 | 178 | 4.8 | 8.0 | 0.00 | 0.03 | 0.03 | 1057.6 | |
| 20260509191612 | -17 | 235 | 3.2 | 11.3 | 0.00 | 0.03 | 0.03 | 1057.5 | |
| 20260509191108 | -17 | 306 | 3.2 | 9.7 | 0.00 | 0.03 | 0.03 | 1057.6 | |
| 20260509190605 | -17 | 299 | 4.8 | 8.0 | 0.00 | 0.03 | 0.03 | 1057.5 | |
| 20260509185600 | -17 | 145 | 3.2 | 9.7 | 0.00 | 0.03 | 0.03 | 1057.7 | |
| 20260509185056 | -17 | 108 | 4.8 | 4.8 | 0.00 | 0.03 | 0.03 | 1057.5 | |
| 20260509184555 | -17 | 162 | 1.6 | 12.9 | 0.00 | 0.03 | 0.03 | 1057.7 | |
| 20260509184051 | -17 | 232 | 8.0 | 9.7 | 0.00 | 0.03 | 0.03 | 1057.7 | |
| 20260509183546 | -17 | 242 | 4.8 | 11.3 | 0.00 | 0.03 | 0.03 | 1057.6 | |
| 20260509183042 | -17 | 214 | 6.4 | 8.0 | 0.00 | 0.03 | 0.03 | 1057.5 | |
| 20260509182539 | -17 | 250 | 8.0 | 17.7 | 0.00 | 0.03 | 0.03 | 1058.0 | |
| 20260509182036 | -17 | 94 | 6.4 | 9.7 | 0.00 | 0.03 | 0.03 | 1057.7 | |
| 20260509181534 | -17 | 258 | 4.8 | 12.9 | 0.00 | 0.03 | 0.03 | 1057.7 | |
| 20260509181031 | -17 | 288 | 8.0 | 9.7 | 0.00 | 0.03 | 0.03 | 1058.2 | |
| 20260509180526 | -17 | 239 | 8.0 | 12.9 | 0.00 | 0.03 | 0.03 | 1058.1 | |
| 20260509180019 | -17 | 251 | 6.4 | 11.3 | 0.00 | 0.03 | 0.03 | 1058.2 | |
| 20260509175514 | -17 | 228 | 4.8 | 12.9 | 0.00 | 0.03 | 0.03 | 1058.1 | |
| 20260509175011 | -17 | 181 | 6.4 | 8.0 | 0.00 | 0.03 | 0.03 | 1058.3 | |
| 20260509174508 | -17 | 152 | 6.4 | 12.9 | 0.00 | 0.03 | 0.03 | 1058.1 | |
| 20260509174003 | -17 | 193 | 3.2 | 4.8 | 0.00 | 0.03 | 0.03 | 1058.0 | |
| 20260509173457 | -17 | 178 | 3.2 | 8.0 | 0.00 | 0.03 | 0.03 | 1058.1 | |
| 20260509172954 | -17 | 212 | 8.0 | 9.7 | 0.00 | 0.03 | 0.03 | 1058.1 | |
| 20260509172451 | -17 | 292 | 4.8 | 8.0 | 0.00 | 0.03 | 0.03 | 1058.1 | |
| 20260509171946 | -17 | 295 | 6.4 | 9.7 | 0.00 | 0.03 | 0.03 | 1058.2 | |
| 20260509171443 | -17 | 115 | 6.4 | 12.9 | 0.00 | 0.03 | 0.03 | 1058.1 | |
| 20260509170939 | -17 | 224 | 8.0 | 11.3 | 0.00 | 0.03 | 0.03 | 1058.4 | |
| 20260509170435 | -17 | 170 | 1.6 | 8.0 | 0.00 | 0.03 | 0.03 | 1058.3 | |
| 20260509165930 | -17 | 208 | 3.2 | 8.0 | 0.00 | 0.03 | 0.03 | 1058.2 | |
| 20260509165425 | -17 | 232 | 8.0 | 11.3 | 0.00 | 0.03 | 0.03 | 1058.4 | |
| 20260509164921 | -17 | 312 | 8.0 | 14.5 | 0.00 | 0.03 | 0.03 | 1058.5 |